createdAt,value
2023-07-29T00:01:12.419Z,99.90
2023-07-29T00:03:39.109Z,99.90
2023-07-29T00:06:05.836Z,99.90
2023-07-29T00:08:32.398Z,99.90
2023-07-29T00:10:58.978Z,99.90
2023-07-29T00:13:25.678Z,99.90
2023-07-29T00:15:55.721Z,99.90
2023-07-29T00:18:23.337Z,99.90
2023-07-29T00:20:51.111Z,99.90
2023-07-29T00:23:20.037Z,99.90
2023-07-29T00:25:46.925Z,99.90
2023-07-29T00:28:14.071Z,99.90
2023-07-29T00:30:40.874Z,99.90
2023-07-29T00:33:07.614Z,99.90
2023-07-29T00:35:34.422Z,99.90
2023-07-29T00:38:01.044Z,99.90
2023-07-29T00:40:29.987Z,99.90
2023-07-29T00:42:56.658Z,99.90
2023-07-29T00:45:25.861Z,99.90
2023-07-29T00:47:52.553Z,99.90
2023-07-29T00:50:19.222Z,99.90
2023-07-29T00:52:46.191Z,99.90
2023-07-29T00:55:13.243Z,99.90
2023-07-29T00:57:41.094Z,99.90
2023-07-29T01:00:09.461Z,99.90
2023-07-29T01:02:36.595Z,99.90
2023-07-29T01:05:03.814Z,99.90
2023-07-29T01:07:45.202Z,99.90
2023-07-29T01:10:28.404Z,99.90
2023-07-29T01:13:06.312Z,99.90
2023-07-29T01:15:55.621Z,99.90
2023-07-29T01:18:29.796Z,99.90
2023-07-29T01:21:04.431Z,99.90
2023-07-29T01:23:35.526Z,99.90
2023-07-29T01:26:03.349Z,99.90
2023-07-29T01:28:30.565Z,99.90
2023-07-29T01:31:16.745Z,99.90
2023-07-29T01:34:24.435Z,99.90
2023-07-29T01:36:52.815Z,99.90
2023-07-29T01:39:23.352Z,99.90
2023-07-29T01:41:50.580Z,99.90
2023-07-29T01:44:18.404Z,99.90
2023-07-29T01:46:45.853Z,99.90
2023-07-29T01:49:12.515Z,99.90
2023-07-29T01:51:39.178Z,99.90
2023-07-29T01:54:05.772Z,99.90
2023-07-29T01:56:32.319Z,99.90
2023-07-29T01:58:58.908Z,99.90
2023-07-29T02:01:25.506Z,99.90
2023-07-29T02:03:56.152Z,99.90
2023-07-29T02:06:22.993Z,99.90
2023-07-29T02:08:49.812Z,99.90
2023-07-29T02:11:16.405Z,99.90
2023-07-29T02:13:43.119Z,99.90
2023-07-29T02:16:09.775Z,99.90
2023-07-29T02:18:36.378Z,99.90
2023-07-29T02:21:02.959Z,99.90
2023-07-29T02:23:29.696Z,99.90
2023-07-29T02:25:56.273Z,99.90
2023-07-29T02:28:22.856Z,99.90
2023-07-29T02:31:15.422Z,99.90
2023-07-29T02:33:42.061Z,99.90
2023-07-29T02:36:08.640Z,99.90
2023-07-29T02:38:35.385Z,99.90
2023-07-29T02:41:02.010Z,99.90
2023-07-29T02:43:28.559Z,99.90
2023-07-29T02:45:55.113Z,99.90
2023-07-29T02:48:21.790Z,99.90
2023-07-29T02:50:48.397Z,99.90
2023-07-29T02:53:15.085Z,99.90
2023-07-29T02:55:41.966Z,99.90
2023-07-29T02:58:08.744Z,99.90
2023-07-29T03:00:36.545Z,99.90
2023-07-29T03:03:03.332Z,99.90
2023-07-29T03:05:30.060Z,99.90
2023-07-29T03:07:56.644Z,99.90
2023-07-29T03:10:23.555Z,99.90
2023-07-29T03:12:50.141Z,99.90
2023-07-29T03:15:16.932Z,99.90
2023-07-29T03:17:43.602Z,99.90
2023-07-29T03:20:10.338Z,99.90
2023-07-29T03:22:37.149Z,99.90
2023-07-29T03:25:04.341Z,99.90
2023-07-29T03:27:31.483Z,99.90
2023-07-29T03:29:58.078Z,99.90
2023-07-29T03:32:24.641Z,99.90
2023-07-29T03:34:51.269Z,99.90
2023-07-29T03:37:17.816Z,99.90
2023-07-29T03:39:44.371Z,99.90
2023-07-29T03:42:10.959Z,99.90
2023-07-29T03:44:39.867Z,99.90
2023-07-29T03:47:07.294Z,99.90
2023-07-29T03:49:33.846Z,99.90
2023-07-29T03:52:00.396Z,99.90
2023-07-29T03:54:27.108Z,99.90
2023-07-29T03:56:53.708Z,99.90
2023-07-29T03:59:20.318Z,99.90
2023-07-29T04:01:47.039Z,99.90
2023-07-29T04:04:13.773Z,99.90
2023-07-29T04:06:40.575Z,99.90
2023-07-29T04:09:07.204Z,99.90
2023-07-29T04:11:33.806Z,99.90
2023-07-29T04:14:00.476Z,99.90
2023-07-29T04:16:27.760Z,99.90
2023-07-29T04:18:54.399Z,99.90
2023-07-29T04:21:21.224Z,99.90
2023-07-29T04:23:47.774Z,99.90
2023-07-29T04:26:14.356Z,99.90
2023-07-29T04:28:40.929Z,99.90
2023-07-29T04:31:07.586Z,99.90
2023-07-29T04:33:37.026Z,99.90
2023-07-29T04:36:04.479Z,99.90
2023-07-29T04:38:34.804Z,99.90
2023-07-29T04:41:07.937Z,99.90
2023-07-29T04:43:34.581Z,99.90
2023-07-29T04:46:01.391Z,99.90
2023-07-29T04:48:28.124Z,99.90
2023-07-29T04:50:54.806Z,99.90
2023-07-29T04:53:21.408Z,99.90
2023-07-29T04:55:48.268Z,99.90
2023-07-29T04:58:14.861Z,99.90
2023-07-29T05:00:41.464Z,99.90
2023-07-29T05:03:08.181Z,99.90
2023-07-29T05:05:34.909Z,99.90
2023-07-29T05:08:01.659Z,99.90
2023-07-29T05:10:28.301Z,99.90
2023-07-29T05:12:54.963Z,99.90
2023-07-29T05:15:21.641Z,99.90
2023-07-29T05:17:48.295Z,99.90
2023-07-29T05:20:14.986Z,99.90
2023-07-29T05:22:41.627Z,99.90
2023-07-29T05:25:08.777Z,99.90
2023-07-29T05:27:35.441Z,99.90
2023-07-29T05:30:02.106Z,99.90
2023-07-29T05:32:28.741Z,99.90
2023-07-29T05:34:55.340Z,99.90
2023-07-29T05:37:21.965Z,99.90
2023-07-29T05:39:48.702Z,99.90
2023-07-29T05:42:15.285Z,99.90
2023-07-29T05:44:41.900Z,99.90
2023-07-29T05:47:08.882Z,99.90
2023-07-29T05:49:35.543Z,99.90
2023-07-29T05:52:02.415Z,99.90
2023-07-29T05:54:29.082Z,99.90
2023-07-29T05:56:55.651Z,99.90
2023-07-29T05:59:22.618Z,99.90
2023-07-29T06:01:49.407Z,99.90
2023-07-29T06:04:16.078Z,99.90
2023-07-29T06:06:42.701Z,99.90
2023-07-29T06:09:09.248Z,99.90
2023-07-29T06:11:35.945Z,99.90
2023-07-29T06:14:02.640Z,99.90
2023-07-29T06:16:29.429Z,99.90
2023-07-29T06:18:56.127Z,99.90
2023-07-29T06:21:22.908Z,99.90
2023-07-29T06:23:49.570Z,99.90
2023-07-29T06:26:16.254Z,99.90
2023-07-29T06:28:42.884Z,99.90
2023-07-29T06:31:09.568Z,99.90
2023-07-29T06:33:36.238Z,99.90
2023-07-29T06:36:02.967Z,99.90
2023-07-29T06:38:29.731Z,99.90
2023-07-29T06:40:56.392Z,99.90
2023-07-29T06:43:23.040Z,99.90
2023-07-29T06:45:49.762Z,99.90
2023-07-29T06:48:16.439Z,99.90
2023-07-29T06:50:43.190Z,99.90
2023-07-29T06:53:10.524Z,99.90
2023-07-29T06:55:37.166Z,99.90
2023-07-29T06:58:04.104Z,99.90
2023-07-29T07:00:31.217Z,99.90
2023-07-29T07:02:57.937Z,99.90
2023-07-29T07:05:24.719Z,99.90
2023-07-29T07:07:51.283Z,99.90
2023-07-29T07:10:17.847Z,99.90
2023-07-29T07:12:44.433Z,99.90
2023-07-29T07:15:11.201Z,99.90
2023-07-29T07:17:38.145Z,99.90
2023-07-29T07:20:05.302Z,99.90
2023-07-29T07:22:31.861Z,99.90
2023-07-29T07:24:58.416Z,99.90
2023-07-29T07:27:24.998Z,99.90
2023-07-29T07:29:51.557Z,99.90
2023-07-29T07:32:18.116Z,99.90
2023-07-29T07:34:44.661Z,99.90
2023-07-29T07:37:11.290Z,99.90
2023-07-29T07:39:37.936Z,99.90
2023-07-29T07:42:04.980Z,99.90
2023-07-29T07:44:31.667Z,99.90
2023-07-29T07:46:58.301Z,99.90
2023-07-29T07:49:25.034Z,99.90
2023-07-29T07:51:51.839Z,99.90
2023-07-29T07:54:18.497Z,99.90
2023-07-29T07:56:45.137Z,99.90
2023-07-29T07:59:11.992Z,99.90
2023-07-29T08:01:40.262Z,99.90
2023-07-29T08:04:07.003Z,99.90
2023-07-29T08:06:34.574Z,99.90
2023-07-29T08:09:01.456Z,99.90
2023-07-29T08:11:28.102Z,99.90
2023-07-29T08:13:54.794Z,99.90
2023-07-29T08:16:21.440Z,99.90
2023-07-29T08:18:48.514Z,99.90
2023-07-29T08:21:15.113Z,99.90
2023-07-29T08:23:42.047Z,99.90
2023-07-29T08:26:08.975Z,99.90
2023-07-29T08:28:40.130Z,99.90
2023-07-29T08:31:07.343Z,99.90
2023-07-29T08:33:34.871Z,99.90
2023-07-29T08:36:02.375Z,99.90
2023-07-29T08:38:29.705Z,99.90
2023-07-29T08:41:12.700Z,99.90
2023-07-29T08:43:44.364Z,99.90
2023-07-29T08:46:11.420Z,99.90
2023-07-29T08:48:41.567Z,99.90
2023-07-29T08:51:10.069Z,99.90
2023-07-29T08:53:37.394Z,99.90
2023-07-29T08:56:04.793Z,99.90
2023-07-29T08:58:31.884Z,99.90
2023-07-29T09:00:58.754Z,99.90
2023-07-29T09:03:25.480Z,99.90
2023-07-29T09:05:52.937Z,99.90
2023-07-29T09:08:20.643Z,99.90
2023-07-29T09:10:47.292Z,99.90
2023-07-29T09:13:13.887Z,99.90
2023-07-29T09:15:40.600Z,99.90
2023-07-29T09:18:19.711Z,99.90
2023-07-29T09:20:50.540Z,99.90
2023-07-29T09:23:17.519Z,99.90
2023-07-29T09:25:46.756Z,99.90
2023-07-29T09:28:16.099Z,99.90
2023-07-29T09:30:47.726Z,99.90
2023-07-29T09:33:14.508Z,99.90
2023-07-29T09:35:41.239Z,99.90
2023-07-29T09:38:08.739Z,99.90
2023-07-29T09:40:41.937Z,99.90
2023-07-29T09:43:10.650Z,99.90
2023-07-29T09:45:38.479Z,99.90
2023-07-29T09:48:10.165Z,99.90
2023-07-29T09:50:37.577Z,99.90
2023-07-29T09:53:04.493Z,99.90
2023-07-29T09:55:34.518Z,99.90
2023-07-29T09:58:03.908Z,99.90
2023-07-29T10:00:31.460Z,99.90
2023-07-29T10:03:01.610Z,99.90
2023-07-29T10:05:29.760Z,99.90
2023-07-29T10:07:57.372Z,99.90
2023-07-29T10:10:24.132Z,99.90
2023-07-29T10:12:51.524Z,99.90
2023-07-29T10:15:18.698Z,99.90
2023-07-29T10:17:49.677Z,99.90
2023-07-29T10:20:17.298Z,99.90
2023-07-29T10:22:47.568Z,99.90
2023-07-29T10:25:18.448Z,99.90
2023-07-29T10:27:50.413Z,99.90
2023-07-29T10:30:17.219Z,99.90
2023-07-29T10:32:48.216Z,99.90
2023-07-29T10:35:16.079Z,99.90
2023-07-29T10:37:43.178Z,99.90
2023-07-29T10:40:12.188Z,99.90
2023-07-29T10:42:39.677Z,99.90
2023-07-29T10:45:22.461Z,99.90
2023-07-29T10:47:49.267Z,99.90
2023-07-29T10:50:23.492Z,99.90
2023-07-29T10:52:52.380Z,99.90
2023-07-29T10:55:33.641Z,99.90
2023-07-29T10:58:17.776Z,99.90
2023-07-29T11:00:45.709Z,99.90
2023-07-29T11:03:17.152Z,99.90
2023-07-29T11:05:43.786Z,99.90
2023-07-29T11:08:30.166Z,99.90
2023-07-29T11:11:09.010Z,99.90
2023-07-29T11:13:37.997Z,99.90
2023-07-29T11:16:05.952Z,99.90
2023-07-29T11:18:36.524Z,99.90
2023-07-29T11:21:04.503Z,99.90
2023-07-29T11:23:36.198Z,99.90
2023-07-29T11:26:04.270Z,99.90
2023-07-29T11:28:31.279Z,99.90
2023-07-29T11:30:59.279Z,99.90
2023-07-29T11:33:29.107Z,99.90
2023-07-29T11:35:56.805Z,99.90
2023-07-29T11:38:24.560Z,99.90
2023-07-29T11:41:03.477Z,99.90
2023-07-29T11:43:30.221Z,99.90
2023-07-29T11:45:56.815Z,99.90
2023-07-29T11:48:33.893Z,99.90
2023-07-29T11:51:01.314Z,99.90
2023-07-29T11:53:31.751Z,99.90
2023-07-29T11:55:59.462Z,99.90
2023-07-29T11:58:26.741Z,99.90
2023-07-29T12:00:53.492Z,99.90
2023-07-29T12:03:20.517Z,99.90
2023-07-29T12:05:49.167Z,99.90
2023-07-29T12:08:17.126Z,99.90
2023-07-29T12:10:43.835Z,99.90
2023-07-29T12:13:10.668Z,99.90
2023-07-29T12:15:40.772Z,99.90
2023-07-29T12:18:07.554Z,99.90
2023-07-29T12:20:35.393Z,99.90
2023-07-29T12:23:08.054Z,99.90
2023-07-29T12:25:35.584Z,99.90
2023-07-29T12:28:07.101Z,99.90
2023-07-29T12:30:34.073Z,99.90
2023-07-29T12:33:00.722Z,99.90
2023-07-29T12:35:38.438Z,99.90
2023-07-29T12:38:05.168Z,99.90
2023-07-29T12:40:31.900Z,99.90
2023-07-29T12:42:59.075Z,99.90
2023-07-29T12:45:28.020Z,99.90
2023-07-29T12:47:55.132Z,99.90
2023-07-29T12:50:22.286Z,99.90
2023-07-29T12:52:49.088Z,99.90
2023-07-29T12:55:16.159Z,99.90
2023-07-29T12:57:44.332Z,99.90
2023-07-29T13:00:11.680Z,99.90
2023-07-29T13:02:38.283Z,99.90
2023-07-29T13:05:05.534Z,99.90
2023-07-29T13:07:32.136Z,99.90
2023-07-29T13:09:58.710Z,99.90
2023-07-29T13:12:25.364Z,99.90
2023-07-29T13:14:51.936Z,99.90
2023-07-29T13:17:18.948Z,99.90
2023-07-29T13:19:45.699Z,99.90
2023-07-29T13:22:12.433Z,99.90
2023-07-29T13:24:39.070Z,99.90
2023-07-29T13:27:06.065Z,99.90
2023-07-29T13:29:32.728Z,99.90
2023-07-29T13:31:59.422Z,99.90
2023-07-29T13:34:26.236Z,99.90
2023-07-29T13:36:52.816Z,99.90
2023-07-29T13:39:19.417Z,99.90
2023-07-29T13:41:46.229Z,99.90
2023-07-29T13:44:12.863Z,99.90
2023-07-29T13:46:39.922Z,99.90
2023-07-29T13:49:06.743Z,99.90
2023-07-29T13:51:33.426Z,99.90
2023-07-29T13:54:00.043Z,99.90
2023-07-29T13:56:26.661Z,99.90
2023-07-29T13:58:53.609Z,99.90
2023-07-29T14:01:20.271Z,99.90
2023-07-29T14:03:46.868Z,99.40
2023-07-29T14:06:13.632Z,99.90
2023-07-29T14:08:42.031Z,99.90
2023-07-29T14:11:08.757Z,99.90
2023-07-29T14:13:35.398Z,99.90
2023-07-29T14:16:03.597Z,99.90
2023-07-29T14:18:30.970Z,99.90
2023-07-29T14:20:57.788Z,99.90
2023-07-29T14:23:24.406Z,99.90
2023-07-29T14:25:51.106Z,99.90
2023-07-29T14:28:17.841Z,97.50
2023-07-29T14:30:44.467Z,99.90
2023-07-29T14:33:11.629Z,99.90
2023-07-29T14:35:38.315Z,97.30
2023-07-29T14:38:05.012Z,97.80
2023-07-29T14:40:31.652Z,97.70
2023-07-29T14:42:58.367Z,96.80
2023-07-29T14:45:25.507Z,93.80
2023-07-29T14:47:52.099Z,93.60
2023-07-29T14:50:18.765Z,92.70
2023-07-29T14:52:45.328Z,91.90
2023-07-29T14:55:12.058Z,91.20
2023-07-29T14:57:38.660Z,91.50
2023-07-29T15:00:05.807Z,90.60
2023-07-29T15:02:32.687Z,91.10
2023-07-29T15:04:59.647Z,91.00
2023-07-29T15:07:26.244Z,88.90
2023-07-29T15:09:52.929Z,88.40
2023-07-29T15:12:19.690Z,88.60
2023-07-29T15:14:48.596Z,90.30
2023-07-29T15:17:15.307Z,89.80
2023-07-29T15:19:41.898Z,88.20
2023-07-29T15:22:08.622Z,85.60
2023-07-29T15:24:35.289Z,84.70
2023-07-29T15:27:01.924Z,87.50
2023-07-29T15:29:28.545Z,85.40
2023-07-29T15:31:55.147Z,82.40
2023-07-29T15:34:24.689Z,80.50
2023-07-29T15:36:51.279Z,82.10
2023-07-29T15:39:18.044Z,82.10
2023-07-29T15:41:44.681Z,84.30
2023-07-29T15:44:11.255Z,89.20
2023-07-29T15:46:38.034Z,87.00
2023-07-29T15:49:05.573Z,82.40
2023-07-29T15:51:32.407Z,82.70
2023-07-29T15:53:59.091Z,82.00
2023-07-29T15:56:28.604Z,80.90
2023-07-29T15:58:55.621Z,79.90
2023-07-29T16:01:24.136Z,78.90
2023-07-29T16:03:50.873Z,80.50
2023-07-29T16:06:17.532Z,79.00
2023-07-29T16:08:44.106Z,79.80
2023-07-29T16:11:10.802Z,79.70
2023-07-29T16:13:37.601Z,80.80
2023-07-29T16:16:04.562Z,83.60
2023-07-29T16:18:32.024Z,83.10
2023-07-29T16:21:07.967Z,81.50
2023-07-29T16:23:34.886Z,84.80
2023-07-29T16:26:01.761Z,85.90
2023-07-29T16:28:28.521Z,87.80
2023-07-29T16:30:55.538Z,89.00
2023-07-29T16:33:22.244Z,86.20
2023-07-29T16:35:48.806Z,86.40
2023-07-29T16:38:15.374Z,85.90
2023-07-29T16:40:50.486Z,86.60
2023-07-29T16:43:24.180Z,86.90
2023-07-29T16:45:50.902Z,85.30
2023-07-29T16:48:17.502Z,84.90
2023-07-29T16:50:44.301Z,84.20
2023-07-29T16:53:10.942Z,83.90
2023-07-29T16:55:37.535Z,82.20
2023-07-29T16:58:04.084Z,84.00
2023-07-29T17:00:30.671Z,86.40
2023-07-29T17:02:57.349Z,85.60
2023-07-29T17:05:23.954Z,85.90
2023-07-29T17:07:50.577Z,87.90
2023-07-29T17:10:17.380Z,87.90
2023-07-29T17:12:44.015Z,90.10
2023-07-29T17:15:10.801Z,90.30
2023-07-29T17:17:38.250Z,90.80
2023-07-29T17:20:05.432Z,91.00
2023-07-29T17:22:36.321Z,91.50
2023-07-29T17:25:03.382Z,90.90
2023-07-29T17:27:29.951Z,91.90
2023-07-29T17:29:56.479Z,90.50
2023-07-29T17:32:23.262Z,90.30
2023-07-29T17:34:49.917Z,91.10
2023-07-29T17:37:16.600Z,91.80
2023-07-29T17:39:44.416Z,91.70
2023-07-29T17:42:10.970Z,92.10
2023-07-29T17:44:37.641Z,92.80
2023-07-29T17:47:04.479Z,92.90
2023-07-29T17:49:31.209Z,93.70
2023-07-29T17:51:57.952Z,94.10
2023-07-29T17:54:24.628Z,94.30
2023-07-29T17:56:51.277Z,94.30
2023-07-29T17:59:17.924Z,95.00
2023-07-29T18:01:46.373Z,95.10
2023-07-29T18:04:12.944Z,95.10
2023-07-29T18:06:39.756Z,96.00
2023-07-29T18:09:06.662Z,96.80
2023-07-29T18:11:33.277Z,96.60
2023-07-29T18:13:59.910Z,97.00
2023-07-29T18:16:26.542Z,99.20
2023-07-29T18:18:53.163Z,99.00
2023-07-29T18:21:19.850Z,98.50
2023-07-29T18:23:46.417Z,98.80
2023-07-29T18:26:12.980Z,98.30
2023-07-29T18:28:39.573Z,99.00
2023-07-29T18:31:06.334Z,99.10
2023-07-29T18:33:32.932Z,99.80
2023-07-29T18:36:02.187Z,99.90
2023-07-29T18:38:28.883Z,99.90
2023-07-29T18:40:55.609Z,99.90
2023-07-29T18:43:22.386Z,99.90
2023-07-29T18:45:49.973Z,99.90
2023-07-29T18:48:17.387Z,99.90
2023-07-29T18:50:47.196Z,99.90
2023-07-29T18:53:13.848Z,99.90
2023-07-29T18:55:41.348Z,99.90
2023-07-29T18:58:08.334Z,99.90
2023-07-29T19:00:35.195Z,99.90
2023-07-29T19:03:01.989Z,99.90
2023-07-29T19:05:28.690Z,99.90
2023-07-29T19:07:55.336Z,99.90
2023-07-29T19:10:22.154Z,99.90
2023-07-29T19:12:51.113Z,99.90
2023-07-29T19:15:17.740Z,99.90
2023-07-29T19:17:44.438Z,99.90
2023-07-29T19:20:11.337Z,99.90
2023-07-29T19:22:37.984Z,99.90
2023-07-29T19:25:05.069Z,99.90
2023-07-29T19:27:31.679Z,99.90
2023-07-29T19:29:58.321Z,99.90
2023-07-29T19:32:25.024Z,99.90
2023-07-29T19:34:56.209Z,99.90
2023-07-29T19:37:26.107Z,99.90
2023-07-29T19:39:53.505Z,99.90
2023-07-29T19:42:21.668Z,99.90
2023-07-29T19:44:48.904Z,99.90
2023-07-29T19:47:15.723Z,99.90
2023-07-29T19:49:42.492Z,99.90
2023-07-29T19:52:09.121Z,99.90
2023-07-29T19:54:36.252Z,99.90
2023-07-29T19:57:03.074Z,99.90
2023-07-29T19:59:42.228Z,99.90
2023-07-29T20:02:14.913Z,99.90
2023-07-29T20:04:41.725Z,99.90
2023-07-29T20:07:08.444Z,99.90
2023-07-29T20:09:35.127Z,99.90
2023-07-29T20:12:01.758Z,99.90
2023-07-29T20:14:28.456Z,99.90
2023-07-29T20:16:55.165Z,99.90
2023-07-29T20:19:22.386Z,99.90
2023-07-29T20:21:49.111Z,99.90
2023-07-29T20:24:15.764Z,99.90
2023-07-29T20:26:42.492Z,99.90
2023-07-29T20:29:09.276Z,99.90
2023-07-29T20:31:36.455Z,99.90
2023-07-29T20:34:03.400Z,99.90
2023-07-29T20:36:30.755Z,99.90
2023-07-29T20:38:57.961Z,99.90
2023-07-29T20:41:25.205Z,99.90
2023-07-29T20:43:52.750Z,99.90
2023-07-29T20:46:23.955Z,99.90
2023-07-29T20:48:50.922Z,99.90
2023-07-29T20:51:22.384Z,99.90
2023-07-29T20:53:49.107Z,99.90
2023-07-29T20:56:16.141Z,99.90
2023-07-29T20:58:42.867Z,99.90
2023-07-29T21:01:09.834Z,99.90
2023-07-29T21:03:36.550Z,99.90
2023-07-29T21:06:03.568Z,99.90
2023-07-29T21:08:30.261Z,99.90
2023-07-29T21:10:57.035Z,99.90
2023-07-29T21:13:23.666Z,99.90
2023-07-29T21:15:58.283Z,99.90
2023-07-29T21:18:25.438Z,99.90
2023-07-29T21:20:52.390Z,99.90
2023-07-29T21:23:18.981Z,99.90
2023-07-29T21:25:49.719Z,99.90
2023-07-29T21:28:17.607Z,99.90
2023-07-29T21:30:45.148Z,99.90
2023-07-29T21:33:12.005Z,99.90
2023-07-29T21:35:39.032Z,99.90
2023-07-29T21:38:19.258Z,99.90
2023-07-29T21:40:53.070Z,99.90
2023-07-29T21:43:19.809Z,99.90
2023-07-29T21:45:46.485Z,99.90
2023-07-29T21:48:13.075Z,99.90
2023-07-29T21:50:41.656Z,99.90
2023-07-29T21:53:08.226Z,99.90
2023-07-29T21:55:34.820Z,99.90
2023-07-29T21:58:01.419Z,99.90
2023-07-29T22:00:28.051Z,99.90
2023-07-29T22:02:55.987Z,99.90
2023-07-29T22:05:22.681Z,99.90
2023-07-29T22:07:49.316Z,99.90
2023-07-29T22:10:16.053Z,99.90
2023-07-29T22:12:44.539Z,99.90
2023-07-29T22:15:11.209Z,99.90
2023-07-29T22:17:38.035Z,99.90
2023-07-29T22:20:05.799Z,99.90
2023-07-29T22:22:32.338Z,99.90
2023-07-29T22:24:58.986Z,99.90
2023-07-29T22:27:25.630Z,99.90
2023-07-29T22:29:53.008Z,99.90
2023-07-29T22:32:19.715Z,99.90
2023-07-29T22:34:46.412Z,99.90
2023-07-29T22:37:13.047Z,99.90
2023-07-29T22:39:39.698Z,99.90
2023-07-29T22:42:06.691Z,99.90
2023-07-29T22:44:33.239Z,99.90
2023-07-29T22:46:59.789Z,99.90
2023-07-29T22:49:26.398Z,99.90
2023-07-29T22:51:52.982Z,99.90
2023-07-29T22:54:19.692Z,99.90
2023-07-29T22:56:46.430Z,99.90
2023-07-29T22:59:12.962Z,99.90
2023-07-29T23:01:39.715Z,99.90
2023-07-29T23:04:06.394Z,99.90
2023-07-29T23:06:33.044Z,99.90
2023-07-29T23:08:59.639Z,99.90
2023-07-29T23:11:26.210Z,99.90
2023-07-29T23:13:52.873Z,99.90
2023-07-29T23:16:19.516Z,99.90
2023-07-29T23:18:46.159Z,99.90
2023-07-29T23:21:12.708Z,99.90
2023-07-29T23:23:39.365Z,99.90
2023-07-29T23:26:06.004Z,99.90
2023-07-29T23:28:32.649Z,99.90
2023-07-29T23:30:59.357Z,99.90
2023-07-29T23:33:26.124Z,99.90
2023-07-29T23:35:52.731Z,99.90
2023-07-29T23:38:22.691Z,99.90
2023-07-29T23:40:49.698Z,99.90
2023-07-29T23:43:16.312Z,99.90
2023-07-29T23:45:42.943Z,99.90
2023-07-29T23:48:09.705Z,99.90
2023-07-29T23:50:39.116Z,99.90
2023-07-29T23:53:05.675Z,99.90
2023-07-29T23:55:32.217Z,99.90
2023-07-29T23:57:58.818Z,99.90
